createdAt,value
2022-10-14T00:00:43.773Z,16.50
2022-10-14T00:03:10.538Z,19.43
2022-10-14T00:05:40.537Z,22.30
2022-10-14T00:08:08.880Z,19.33
2022-10-14T00:10:38.744Z,19.57
2022-10-14T00:13:05.910Z,23.80
2022-10-14T00:15:37.078Z,23.90
2022-10-14T00:18:03.861Z,19.73
2022-10-14T00:20:30.621Z,17.50
2022-10-14T00:22:57.569Z,18.53
2022-10-14T00:25:26.214Z,21.77
2022-10-14T00:27:53.246Z,18.93
2022-10-14T00:30:20.801Z,19.20
2022-10-14T00:32:47.617Z,20.13
2022-10-14T00:35:14.470Z,19.57
2022-10-14T00:37:41.223Z,19.50
2022-10-14T00:40:08.435Z,18.50
2022-10-14T00:42:35.431Z,17.27
2022-10-14T00:45:07.016Z,15.00
2022-10-14T00:47:34.102Z,17.67
2022-10-14T00:50:01.238Z,17.83
2022-10-14T00:52:29.099Z,17.00
2022-10-14T00:55:05.945Z,19.13
2022-10-14T00:57:33.336Z,16.93
2022-10-14T01:00:06.207Z,21.27
2022-10-14T01:02:33.227Z,18.00
2022-10-14T01:05:01.511Z,17.70
2022-10-14T01:07:33.943Z,17.03
2022-10-14T01:10:13.730Z,16.83
2022-10-14T01:13:01.490Z,15.47
2022-10-14T01:15:52.135Z,18.53
2022-10-14T01:18:27.736Z,17.80
2022-10-14T01:21:32.094Z,17.50
2022-10-14T01:24:18.878Z,17.40
2022-10-14T01:27:02.051Z,16.53
2022-10-14T01:29:59.747Z,17.33
2022-10-14T01:32:35.814Z,20.17
2022-10-14T01:35:11.797Z,18.77
2022-10-14T01:37:49.088Z,15.77
2022-10-14T01:40:29.832Z,13.77
2022-10-14T01:42:59.038Z,20.00
2022-10-14T01:45:28.785Z,17.07
2022-10-14T01:47:57.357Z,19.17
2022-10-14T01:50:27.667Z,16.20
2022-10-14T01:53:15.106Z,17.33
2022-10-14T01:55:47.400Z,16.60
2022-10-14T01:58:16.888Z,14.67
2022-10-14T02:00:43.833Z,15.53
2022-10-14T02:03:13.528Z,14.17
2022-10-14T02:06:01.646Z,15.53
2022-10-14T02:08:43.034Z,14.60
2022-10-14T02:11:12.448Z,16.53
2022-10-14T02:14:05.153Z,16.47
2022-10-14T02:17:04.417Z,16.70
2022-10-14T02:19:46.131Z,18.40
2022-10-14T02:22:27.596Z,16.60
2022-10-14T02:25:02.955Z,15.70
2022-10-14T02:27:32.521Z,19.57
2022-10-14T02:29:59.986Z,14.00
2022-10-14T02:32:28.363Z,19.80
2022-10-14T02:34:58.510Z,17.10
2022-10-14T02:37:26.757Z,18.97
2022-10-14T02:40:08.297Z,17.93
2022-10-14T02:42:35.215Z,19.33
2022-10-14T02:45:02.250Z,14.53
2022-10-14T02:47:29.319Z,17.53
2022-10-14T02:49:56.042Z,17.93
2022-10-14T02:52:23.144Z,18.57
2022-10-14T02:54:50.205Z,16.57
2022-10-14T02:57:16.964Z,17.27
2022-10-14T02:59:43.731Z,15.80
2022-10-14T03:02:10.489Z,18.17
2022-10-14T03:04:38.061Z,18.20
2022-10-14T03:07:05.033Z,16.13
2022-10-14T03:09:31.802Z,18.37
2022-10-14T03:11:58.568Z,20.53
2022-10-14T03:14:25.263Z,20.60
2022-10-14T03:16:52.105Z,21.70
2022-10-14T03:19:18.913Z,21.63
2022-10-14T03:21:45.713Z,28.87
2022-10-14T03:24:12.481Z,21.07
2022-10-14T03:26:39.231Z,22.77
2022-10-14T03:29:05.977Z,20.70
2022-10-14T03:31:32.662Z,22.23
2022-10-14T03:33:59.495Z,20.60
2022-10-14T03:36:26.298Z,21.30
2022-10-14T03:38:53.054Z,22.43
2022-10-14T03:41:19.771Z,22.20
2022-10-14T03:43:46.670Z,18.77
2022-10-14T03:46:13.374Z,21.83
2022-10-14T03:48:40.110Z,18.87
2022-10-14T03:51:07.789Z,18.63
2022-10-14T03:53:34.667Z,19.27
2022-10-14T03:56:01.530Z,20.83
2022-10-14T03:58:28.256Z,21.50
2022-10-14T04:00:54.999Z,22.43
2022-10-14T04:03:21.697Z,20.77
2022-10-14T04:05:48.457Z,22.33
2022-10-14T04:08:15.272Z,25.57
2022-10-14T04:10:41.942Z,23.60
2022-10-14T04:13:11.428Z,25.30
2022-10-14T04:15:38.354Z,24.10
2022-10-14T04:18:05.317Z,23.13
2022-10-14T04:20:32.143Z,24.37
2022-10-14T04:23:00.974Z,24.87
2022-10-14T04:25:27.852Z,21.17
2022-10-14T04:27:54.817Z,19.13
2022-10-14T04:30:21.609Z,18.10
2022-10-14T04:32:48.469Z,19.00
2022-10-14T04:35:15.634Z,20.50
2022-10-14T04:37:42.335Z,21.67
2022-10-14T04:40:09.499Z,16.90
2022-10-14T04:42:36.284Z,16.27
2022-10-14T04:45:04.687Z,21.70
2022-10-14T04:47:31.782Z,19.10
2022-10-14T04:49:58.605Z,17.97
2022-10-14T04:52:25.575Z,22.37
2022-10-14T04:54:52.275Z,22.60
2022-10-14T04:57:18.965Z,21.13
2022-10-14T04:59:45.687Z,20.33
2022-10-14T05:02:12.424Z,18.67
2022-10-14T05:04:39.271Z,19.67
2022-10-14T05:07:05.991Z,20.20
2022-10-14T05:09:33.449Z,23.60
2022-10-14T05:12:02.152Z,20.77
2022-10-14T05:14:29.603Z,22.17
2022-10-14T05:16:56.375Z,22.00
2022-10-14T05:19:23.147Z,23.50
2022-10-14T05:21:50.029Z,19.83
2022-10-14T05:24:16.783Z,18.63
2022-10-14T05:26:43.507Z,19.87
2022-10-14T05:29:13.483Z,18.77
2022-10-14T05:31:40.298Z,20.70
2022-10-14T05:34:07.140Z,21.23
2022-10-14T05:36:33.881Z,21.20
2022-10-14T05:39:00.578Z,21.57
2022-10-14T05:41:29.161Z,25.60
2022-10-14T05:43:55.992Z,20.77
2022-10-14T05:46:22.766Z,21.87
2022-10-14T05:48:49.468Z,21.90
2022-10-14T05:51:16.619Z,23.47
2022-10-14T05:53:43.627Z,19.60
2022-10-14T05:56:10.906Z,18.07
2022-10-14T05:58:37.717Z,19.47
2022-10-14T06:01:07.524Z,18.13
2022-10-14T06:03:35.166Z,19.20
2022-10-14T06:06:02.374Z,18.67
2022-10-14T06:08:29.448Z,20.97
2022-10-14T06:10:56.440Z,18.63
2022-10-14T06:13:23.278Z,21.87
2022-10-14T06:15:50.055Z,17.93
2022-10-14T06:18:17.171Z,20.87
2022-10-14T06:20:43.959Z,19.80
2022-10-14T06:23:10.755Z,24.77
2022-10-14T06:25:37.453Z,22.77
2022-10-14T06:28:05.350Z,19.23
2022-10-14T06:30:32.767Z,17.90
2022-10-14T06:32:59.502Z,18.27
2022-10-14T06:35:26.574Z,18.73
2022-10-14T06:37:53.317Z,17.60
2022-10-14T06:40:20.315Z,20.90
2022-10-14T06:42:47.007Z,17.90
2022-10-14T06:45:13.842Z,15.67
2022-10-14T06:47:40.582Z,21.73
2022-10-14T06:50:07.760Z,16.30
2022-10-14T06:52:34.575Z,18.23
2022-10-14T06:55:01.376Z,19.13
2022-10-14T06:57:28.098Z,16.00
2022-10-14T06:59:55.009Z,19.40
2022-10-14T07:02:22.009Z,17.23
2022-10-14T07:04:48.869Z,18.23
2022-10-14T07:07:15.600Z,18.40
2022-10-14T07:09:42.493Z,15.90
2022-10-14T07:12:09.337Z,20.63
2022-10-14T07:14:36.022Z,17.43
2022-10-14T07:17:02.989Z,20.03
2022-10-14T07:19:29.696Z,20.97
2022-10-14T07:21:56.407Z,22.03
2022-10-14T07:24:23.142Z,15.30
2022-10-14T07:26:49.979Z,15.77
2022-10-14T07:29:17.070Z,15.63
2022-10-14T07:31:43.874Z,18.47
2022-10-14T07:34:10.609Z,16.30
2022-10-14T07:36:37.585Z,15.87
2022-10-14T07:39:05.878Z,23.23
2022-10-14T07:41:33.576Z,18.53
2022-10-14T07:44:03.226Z,16.63
2022-10-14T07:46:33.017Z,16.33
2022-10-14T07:49:03.136Z,15.33
2022-10-14T07:51:30.397Z,17.87
2022-10-14T07:53:58.893Z,14.33
2022-10-14T07:56:25.991Z,13.73
2022-10-14T07:58:53.275Z,14.57
2022-10-14T08:01:20.641Z,15.73
2022-10-14T08:03:48.427Z,13.80
2022-10-14T08:06:15.846Z,12.63
2022-10-14T08:08:44.171Z,12.97
2022-10-14T08:11:21.586Z,12.50
2022-10-14T08:13:48.997Z,11.53
2022-10-14T08:16:19.068Z,11.30
2022-10-14T08:18:46.921Z,9.83
2022-10-14T08:21:14.642Z,9.87
2022-10-14T08:23:41.584Z,11.67
2022-10-14T08:26:31.039Z,12.50
2022-10-14T08:29:01.317Z,14.07
2022-10-14T08:31:28.850Z,13.77
2022-10-14T08:33:55.577Z,10.20
2022-10-14T08:36:23.035Z,8.93
2022-10-14T08:38:52.290Z,9.87
2022-10-14T08:41:23.203Z,11.90
2022-10-14T08:44:16.056Z,8.87
2022-10-14T08:46:54.447Z,8.50
2022-10-14T08:49:32.906Z,8.80
2022-10-14T08:52:14.059Z,7.40
2022-10-14T08:54:44.279Z,8.07
2022-10-14T08:57:19.294Z,6.60
2022-10-14T08:59:46.457Z,6.60
2022-10-14T09:02:40.737Z,8.43
2022-10-14T09:05:25.185Z,8.77
2022-10-14T09:07:55.259Z,8.20
2022-10-14T09:10:34.716Z,9.77
2022-10-14T09:13:20.101Z,6.97
2022-10-14T09:15:53.193Z,8.27
2022-10-14T09:18:25.547Z,8.70
2022-10-14T09:20:53.703Z,8.77
2022-10-14T09:23:23.474Z,10.83
2022-10-14T09:25:56.184Z,6.80
2022-10-14T09:28:31.031Z,8.87
2022-10-14T09:30:57.908Z,8.90
2022-10-14T09:33:28.497Z,10.20
2022-10-14T09:38:26.660Z,12.50
2022-10-14T09:40:59.632Z,7.63
2022-10-14T09:43:26.600Z,9.43
2022-10-14T09:46:08.126Z,6.67
2022-10-14T09:48:51.097Z,7.33
2022-10-14T09:51:28.107Z,9.80
2022-10-14T09:53:57.176Z,8.87
2022-10-14T09:56:40.758Z,8.93
2022-10-14T09:59:22.615Z,8.73
2022-10-14T10:01:50.498Z,7.23
2022-10-14T10:04:42.982Z,7.13
2022-10-14T10:07:31.370Z,10.40
2022-10-14T10:10:16.390Z,8.17
2022-10-14T10:12:47.734Z,6.63
2022-10-14T10:15:21.603Z,8.53
2022-10-14T10:17:49.752Z,8.63
2022-10-14T10:20:31.997Z,9.30
2022-10-14T10:23:26.792Z,7.30
2022-10-14T10:25:53.755Z,5.03
2022-10-14T10:28:32.329Z,7.87
2022-10-14T10:31:35.263Z,5.90
2022-10-14T10:34:39.528Z,8.50
2022-10-14T10:37:17.270Z,7.90
2022-10-14T10:39:49.783Z,8.13
2022-10-14T10:42:21.546Z,8.00
2022-10-14T10:45:03.617Z,4.80
2022-10-14T10:47:49.420Z,5.23
2022-10-14T10:50:29.082Z,6.67
2022-10-14T10:53:05.423Z,5.93
2022-10-14T10:55:57.526Z,5.70
2022-10-14T10:58:55.049Z,5.67
2022-10-14T11:01:59.606Z,5.83
2022-10-14T11:04:46.992Z,7.73
2022-10-14T11:07:45.167Z,6.30
2022-10-14T11:10:59.105Z,7.97
2022-10-14T11:13:29.313Z,6.20
2022-10-14T11:16:04.934Z,6.53
2022-10-14T11:18:57.408Z,5.97
2022-10-14T11:21:24.309Z,7.27
2022-10-14T11:24:03.310Z,6.30
2022-10-14T11:26:53.793Z,6.07
2022-10-14T11:29:35.525Z,6.60
2022-10-14T11:32:24.904Z,5.13
2022-10-14T11:35:28.724Z,7.43
2022-10-14T11:38:10.630Z,7.00
2022-10-14T11:40:51.215Z,6.73
2022-10-14T11:43:39.438Z,5.80
2022-10-14T11:46:18.071Z,6.50
2022-10-14T11:48:58.221Z,8.30
2022-10-14T11:51:42.628Z,6.53
2022-10-14T11:54:18.697Z,4.37
2022-10-14T11:56:54.775Z,4.90
2022-10-14T11:59:40.506Z,6.63
2022-10-14T12:02:28.189Z,7.20
2022-10-14T12:05:10.247Z,6.50
2022-10-14T12:07:46.933Z,5.53
2022-10-14T12:10:22.751Z,5.20
2022-10-14T12:12:51.231Z,5.73
2022-10-14T12:15:25.342Z,4.90
2022-10-14T12:18:01.524Z,2.33
2022-10-14T12:20:40.150Z,5.30
2022-10-14T12:23:11.060Z,6.63
2022-10-14T12:25:45.743Z,4.47
2022-10-14T12:28:14.052Z,5.40
2022-10-14T12:30:42.492Z,5.33
2022-10-14T12:33:16.701Z,6.87
2022-10-14T12:35:59.710Z,6.57
2022-10-14T12:38:29.287Z,6.70
2022-10-14T12:41:39.484Z,6.07
2022-10-14T12:44:14.274Z,7.50
2022-10-14T12:46:45.946Z,5.57
2022-10-14T12:49:28.974Z,3.30
2022-10-14T12:51:58.792Z,3.70
2022-10-14T12:54:26.951Z,5.73
2022-10-14T12:57:03.291Z,4.87
2022-10-14T12:59:31.384Z,6.80
2022-10-14T13:02:02.776Z,9.37
2022-10-14T13:04:30.485Z,26.73
2022-10-14T13:07:38.870Z,5.40
2022-10-14T13:10:41.870Z,5.50
2022-10-14T13:13:42.012Z,4.77
2022-10-14T13:16:09.856Z,4.50
2022-10-14T13:18:42.379Z,4.60
2022-10-14T13:21:20.316Z,4.40
2022-10-14T13:23:51.120Z,7.87
2022-10-14T13:26:28.731Z,8.17
2022-10-14T13:29:20.419Z,5.37
2022-10-14T13:31:59.619Z,4.73
2022-10-14T13:34:34.851Z,4.40
2022-10-14T13:37:25.505Z,4.10
2022-10-14T13:39:57.399Z,3.70
2022-10-14T13:42:32.164Z,6.50
2022-10-14T13:45:08.031Z,3.67
2022-10-14T13:47:36.395Z,5.90
2022-10-14T13:50:05.355Z,4.00
2022-10-14T13:52:34.002Z,4.90
2022-10-14T13:55:20.679Z,5.13
2022-10-14T13:58:21.416Z,3.23
2022-10-14T14:01:00.111Z,2.27
2022-10-14T14:03:31.685Z,1.70
2022-10-14T14:05:59.913Z,1.73
2022-10-14T14:08:46.044Z,3.00
2022-10-14T14:11:31.355Z,2.10
2022-10-14T14:14:04.186Z,1.60
2022-10-14T14:16:40.725Z,1.23
2022-10-14T14:19:25.451Z,2.80
2022-10-14T14:21:52.737Z,1.97
2022-10-14T14:24:26.246Z,2.53
2022-10-14T14:26:56.612Z,2.97
2022-10-14T14:29:27.444Z,2.97
2022-10-14T14:32:06.147Z,1.13
2022-10-14T14:34:36.703Z,3.20
2022-10-14T14:37:36.822Z,3.40
2022-10-14T14:40:08.132Z,1.70
2022-10-14T14:42:39.568Z,2.97
2022-10-14T14:45:39.344Z,1.70
2022-10-14T14:48:07.815Z,1.83
2022-10-14T14:50:43.875Z,1.30
2022-10-14T14:53:29.679Z,3.13
2022-10-14T14:55:56.493Z,1.43
2022-10-14T14:58:35.132Z,3.13
2022-10-14T15:01:19.430Z,1.93
2022-10-14T15:04:12.584Z,1.83
2022-10-14T15:06:51.500Z,2.23
2022-10-14T15:09:36.239Z,2.93
2022-10-14T15:12:06.682Z,2.67
2022-10-14T15:14:47.739Z,3.43
2022-10-14T15:17:40.168Z,1.70
2022-10-14T15:20:29.546Z,1.90
2022-10-14T15:22:56.319Z,1.30
2022-10-14T15:25:27.898Z,2.50
2022-10-14T15:27:59.178Z,2.20
2022-10-14T15:30:39.278Z,3.10
2022-10-14T15:33:15.951Z,1.70
2022-10-14T15:35:44.434Z,4.07
2022-10-14T15:38:19.239Z,2.60
2022-10-14T15:40:47.923Z,2.13
2022-10-14T15:43:17.810Z,2.50
2022-10-14T15:45:47.410Z,2.97
2022-10-14T15:48:19.910Z,2.73
2022-10-14T15:50:52.567Z,3.13
2022-10-14T15:53:26.080Z,3.60
2022-10-14T15:55:53.449Z,3.83
2022-10-14T15:58:20.222Z,3.40
2022-10-14T16:00:47.283Z,1.93
2022-10-14T16:03:17.630Z,2.30
2022-10-14T16:05:45.242Z,2.97
2022-10-14T16:08:17.652Z,4.37
2022-10-14T16:10:45.868Z,3.57
2022-10-14T16:13:13.061Z,3.43
2022-10-14T16:15:42.790Z,2.33
2022-10-14T16:18:09.562Z,1.83
2022-10-14T16:20:36.303Z,2.93
2022-10-14T16:23:04.691Z,3.57
2022-10-14T16:25:41.189Z,2.77
2022-10-14T16:28:10.030Z,4.33
2022-10-14T16:30:39.732Z,3.87
2022-10-14T16:33:07.573Z,4.50
2022-10-14T16:35:34.379Z,5.07
2022-10-14T16:38:01.182Z,3.47
2022-10-14T16:40:27.988Z,4.30
2022-10-14T16:42:54.861Z,4.43
2022-10-14T16:45:21.570Z,3.67
2022-10-14T16:47:48.344Z,4.87
2022-10-14T16:50:15.146Z,5.53
2022-10-14T16:53:03.554Z,4.57
2022-10-14T16:55:34.699Z,6.93
2022-10-14T16:58:01.519Z,4.10
2022-10-14T17:00:29.177Z,3.90
2022-10-14T17:02:55.925Z,4.77
2022-10-14T17:05:22.793Z,3.50
2022-10-14T17:07:49.594Z,4.37
2022-10-14T17:10:17.127Z,4.20
2022-10-14T17:12:43.884Z,5.10
2022-10-14T17:15:11.096Z,4.30
2022-10-14T17:17:39.999Z,5.17
2022-10-14T17:20:09.349Z,4.97
2022-10-14T17:22:36.547Z,4.83
2022-10-14T17:25:03.569Z,5.17
2022-10-14T17:27:30.331Z,8.57
2022-10-14T17:29:57.181Z,5.07
2022-10-14T17:32:24.250Z,4.53
2022-10-14T17:34:53.502Z,5.53
2022-10-14T17:37:20.612Z,3.53
2022-10-14T17:39:50.028Z,4.47
2022-10-14T17:42:16.865Z,4.30
2022-10-14T17:44:44.023Z,6.67
2022-10-14T17:47:11.310Z,4.77
2022-10-14T17:49:38.366Z,6.37
2022-10-14T17:52:06.270Z,6.60
2022-10-14T17:54:33.202Z,7.00
2022-10-14T17:56:59.962Z,6.33
2022-10-14T17:59:27.421Z,7.23
2022-10-14T18:02:03.169Z,6.00
2022-10-14T18:04:30.593Z,8.63
2022-10-14T18:06:58.569Z,8.60
2022-10-14T18:09:25.470Z,7.43
2022-10-14T18:12:09.157Z,8.73
2022-10-14T18:14:36.715Z,9.57
2022-10-14T18:17:05.258Z,9.30
2022-10-14T18:19:32.189Z,9.13
2022-10-14T18:21:59.195Z,8.67
2022-10-14T18:24:26.097Z,10.50
2022-10-14T18:26:53.303Z,8.37
2022-10-14T18:29:20.378Z,10.27
2022-10-14T18:31:49.331Z,11.60
2022-10-14T18:34:16.221Z,15.13
2022-10-14T18:36:43.375Z,12.73
2022-10-14T18:39:11.662Z,9.13
2022-10-14T18:41:39.140Z,11.33
2022-10-14T18:44:06.880Z,9.37
2022-10-14T18:46:36.148Z,8.47
2022-10-14T18:49:04.858Z,8.17
2022-10-14T18:51:35.071Z,9.43
2022-10-14T18:54:08.292Z,9.43
2022-10-14T18:56:38.668Z,12.17
2022-10-14T18:59:14.218Z,11.90
2022-10-14T19:01:41.774Z,11.13
2022-10-14T19:04:10.727Z,12.37
2022-10-14T19:06:37.556Z,12.43
2022-10-14T19:09:05.128Z,13.30
2022-10-14T19:11:33.947Z,13.50
2022-10-14T19:14:04.020Z,12.33
2022-10-14T19:16:36.726Z,13.00
2022-10-14T19:19:11.921Z,11.47
2022-10-14T19:21:39.684Z,12.73
2022-10-14T19:24:08.296Z,14.10
2022-10-14T19:26:37.854Z,15.83
2022-10-14T19:29:09.119Z,16.80
2022-10-14T19:31:39.025Z,16.50
2022-10-14T19:34:08.133Z,17.87
2022-10-14T19:36:38.145Z,17.90
2022-10-14T19:39:07.233Z,17.43
2022-10-14T19:41:42.572Z,17.97
2022-10-14T19:44:10.474Z,16.23
2022-10-14T19:46:37.602Z,16.87
2022-10-14T19:49:05.268Z,18.23
2022-10-14T19:51:35.464Z,15.90
2022-10-14T19:54:02.353Z,15.03
2022-10-14T19:56:29.893Z,15.47
2022-10-14T19:58:58.574Z,15.57
2022-10-14T20:01:28.408Z,15.87
2022-10-14T20:03:55.624Z,15.23
2022-10-14T20:06:23.744Z,15.77
2022-10-14T20:08:51.360Z,17.77
2022-10-14T20:11:19.993Z,16.80
2022-10-14T20:13:47.003Z,14.93
2022-10-14T20:16:14.713Z,13.97
2022-10-14T20:18:42.197Z,15.53
2022-10-14T20:21:11.963Z,15.40
2022-10-14T20:23:39.124Z,13.40
2022-10-14T20:26:08.595Z,13.17
2022-10-14T20:28:36.570Z,13.60
2022-10-14T20:31:07.639Z,14.87
2022-10-14T20:33:34.645Z,18.33
2022-10-14T20:36:07.145Z,16.90
2022-10-14T20:38:34.610Z,15.20
2022-10-14T20:41:19.959Z,17.13
2022-10-14T20:43:47.924Z,14.30
2022-10-14T20:46:15.125Z,16.93
2022-10-14T20:48:42.535Z,14.87
2022-10-14T20:51:15.727Z,12.27
2022-10-14T20:53:42.703Z,14.57
2022-10-14T20:56:11.657Z,14.73
2022-10-14T20:58:38.695Z,13.50
2022-10-14T21:01:15.909Z,16.57
2022-10-14T21:03:45.031Z,12.77
2022-10-14T21:06:15.760Z,13.30
2022-10-14T21:08:43.096Z,14.73
2022-10-14T21:11:15.028Z,16.43
2022-10-14T21:13:51.966Z,16.67
2022-10-14T21:16:28.165Z,12.97
2022-10-14T21:19:03.358Z,14.77
2022-10-14T21:21:38.876Z,13.83
2022-10-14T21:24:06.260Z,15.47
2022-10-14T21:26:33.097Z,16.80
2022-10-14T21:29:02.384Z,17.20
2022-10-14T21:31:29.249Z,15.80
2022-10-14T21:34:02.589Z,17.13
2022-10-14T21:36:32.261Z,14.53
2022-10-14T21:39:00.885Z,16.90
2022-10-14T21:41:28.267Z,14.30
2022-10-14T21:43:59.244Z,14.17
2022-10-14T21:46:27.172Z,14.43
2022-10-14T21:48:59.101Z,15.97
2022-10-14T21:51:28.791Z,13.90
2022-10-14T21:53:56.461Z,13.87
2022-10-14T21:56:24.190Z,13.33
2022-10-14T21:58:50.913Z,16.27
2022-10-14T22:01:30.698Z,19.43
2022-10-14T22:04:00.026Z,13.10
2022-10-14T22:06:27.842Z,17.90
2022-10-14T22:08:56.936Z,14.00
2022-10-14T22:11:30.058Z,15.33
2022-10-14T22:13:58.413Z,15.80
2022-10-14T22:16:26.099Z,13.30
2022-10-14T22:18:53.784Z,13.40
2022-10-14T22:21:23.348Z,11.93
2022-10-14T22:23:51.320Z,14.10
2022-10-14T22:26:23.282Z,17.07
2022-10-14T22:28:56.663Z,15.97
2022-10-14T22:31:23.435Z,14.43
2022-10-14T22:33:50.147Z,13.13
2022-10-14T22:36:23.875Z,11.03
2022-10-14T22:38:53.571Z,8.83
2022-10-14T22:41:21.587Z,15.47
2022-10-14T22:43:54.267Z,13.80
2022-10-14T22:46:23.752Z,13.13
2022-10-14T22:48:56.222Z,11.90
2022-10-14T22:51:31.434Z,15.17
2022-10-14T22:53:58.350Z,11.80
2022-10-14T22:56:27.401Z,13.87
2022-10-14T22:59:02.680Z,16.90
2022-10-14T23:01:30.478Z,16.87
2022-10-14T23:03:58.204Z,14.53
2022-10-14T23:06:25.395Z,26.87
2022-10-14T23:08:52.366Z,26.90
2022-10-14T23:11:20.978Z,20.53
2022-10-14T23:13:48.238Z,18.43
2022-10-14T23:16:23.663Z,14.23
2022-10-14T23:18:51.548Z,16.77
2022-10-14T23:21:18.245Z,19.73
2022-10-14T23:23:45.785Z,18.23
2022-10-14T23:26:14.890Z,15.30
2022-10-14T23:28:42.164Z,18.07
2022-10-14T23:31:10.171Z,14.40
2022-10-14T23:33:36.971Z,16.53
2022-10-14T23:36:05.568Z,16.47
2022-10-14T23:38:33.825Z,19.03
2022-10-14T23:41:02.727Z,19.47
2022-10-14T23:43:29.874Z,17.20
2022-10-14T23:45:56.668Z,14.87
2022-10-14T23:48:24.304Z,13.47
2022-10-14T23:50:51.201Z,12.40
2022-10-14T23:53:18.184Z,16.50
2022-10-14T23:55:45.564Z,17.47
2022-10-14T23:58:12.727Z,25.40
